CYVO

Details ICAO CYVO (YVO)
Name VAL D OR
Region Canada
Timezone America/Montreal (UTC-5.0)
Plans Departing 20
Arriving 40
Stats Elevation 1,107 ft / 337 m (AMSL)
Location 48.053286° -77.782659°
Runways 1
Magnetic Variation 12.860° W
Sunrise 2017-12-17 12:57:31 UTC / 2017-12-17 07:57:31 Local
Sunset 2017-12-17 21:19:56 UTC / 2017-12-17 16:19:56 Local
Advertisement - Login to hide

Runways

ID Width Length Bearing (true) Bearing (mag) Surface Threshold Offset Overrun Length
18 150 ft / 46 m 10,003 ft / 3,049 m 169.14° 182.00° Asphalt 0 ft / 0 m 0 ft / 0 m
36 150 ft / 46 m 10,003 ft / 3,049 m 349.15° 2.01° Asphalt 0 ft / 0 m 0 ft / 0 m

Approach Navaids

Runway Type Ident Frequency Range Bearing (true) Bearing (mag) Slope Elevation
18 Localiser IVO 110.30 MHz 50 nm / 93 km 169.30° 182.16° - 1,107 ft / 337 m (AMSL)
18 Glidescope IVO 110.30 MHz 50 nm / 93 km 183.00° 195.86° 3.00° 1,107 ft / 337 m (AMSL)

Map

Weather


0- 5 10 15 20 25 30 35+ Temperature / ° C

Clouds and Precipitation
Forecast for 2017-12-17 12:00 UTC. Updated an hour ago

Ground ~20,000 ft ~40,000 ft Winds

METAR

CYVO 171200Z 00000KT 15SM SKC M31/M34 A3025 RMK SLP295

TAF

TAF CYVO 171138Z 1712/1724 VRB03KT P6SM SKC BECMG 1714/1716 19006KT RMK NXT FCST BY 171800Z

Frequencies

Tower 118.50 MHz MF
Warning: Do not use this data for real-world aviation or navigation. No guarantee of current accuracy is given.